< < Back
Terminal Aerodrome Forecast


Current Version              Previous Versions:   1  2  3  4  5  6  7  8  9  

Terminal Aerodrome Forecast

420
FTUS44 KBMX 270520
TAFANB
TAF
KANB 270520Z 2706/2806 VRB02KT P6SM FEW060 BKN250
     FM271500 VRB04KT P6SM SCT035 SCT250
     FM271900 25007KT P6SM VCTS BKN050CB
     FM280200 02005KT P6SM BKN250=

Latest METAR

391
SAUS70 KWBC 272000 RRC
MTRANB
METAR KANB 271953Z AUTO 00000KT 10SM CLR 34/18 A2999 RMK AO2 SLP144
T03440183


USA.gov is the U.S. government's official web portal to all federal, state and local government web resources and services.